Time;durP1;ratioP1;P1;durP2;ratioP2;P2;SDS_P1;SDS_P2;PMS_P1;PMS_P2;Temp;Humidity;BMP_temperature;BMP_pressure;BME280_temperature;BME280_humidity;BME280_pressure;Samples;Min_cycle;Max_cycle;Signal;HPM_P1;HPM_P2
2023/12/17 00:02:03;;;;;;;8.15;3.20;;;;;;;13.90;74.31;103815.94;5031026;28;20034;-45
2023/12/17 00:04:29;;;;;;;9.50;3.65;;;;;;;14.28;72.71;103812.41;5032083;28;20096;-50
2023/12/17 00:06:54;;;;;;;9.70;3.28;;;;;;;14.00;73.48;103815.53;5031944;28;20030;-45
2023/12/17 00:09:19;;;;;;;11.85;3.40;;;;;;;14.19;72.85;103814.63;5031913;28;20060;-45
2023/12/17 00:11:45;;;;;;;10.25;3.13;;;;;;;13.74;74.31;103816.91;5031713;28;20061;-45
2023/12/17 00:14:14;;;;;;;9.10;3.50;;;;;;;14.10;73.49;103806.31;5031876;28;20040;-43
2023/12/17 00:16:40;;;;;;;7.47;3.17;;;;;;;14.00;73.13;103810.28;5030497;28;20484;-49
2023/12/17 00:19:05;;;;;;;9.13;3.80;;;;;;;13.96;73.50;103796.97;5031118;28;20496;-51
2023/12/17 00:21:32;;;;;;;13.52;3.80;;;;;;;13.80;74.11;103792.72;5031319;28;20037;-48
2023/12/17 00:23:57;;;;;;;8.15;3.60;;;;;;;13.85;74.32;103795.53;5031341;28;20037;-46
2023/12/17 00:26:22;;;;;;;7.82;3.67;;;;;;;14.07;73.95;103807.09;5031720;28;20041;-45
2023/12/17 00:28:48;;;;;;;9.48;4.00;;;;;;;13.88;74.25;103819.28;5031976;28;20037;-46
2023/12/17 00:31:13;;;;;;;8.60;4.03;;;;;;;13.89;74.05;103819.38;5031498;28;20064;-43
2023/12/17 00:33:38;;;;;;;9.70;4.18;;;;;;;13.80;74.25;103821.56;5031931;28;20079;-45
2023/12/17 00:36:04;;;;;;;11.48;4.25;;;;;;;13.87;73.91;103805.28;5031411;28;20029;-49
2023/12/17 00:38:29;;;;;;;11.80;4.15;;;;;;;13.63;74.55;103797.16;5031930;28;20037;-44
2023/12/17 00:40:55;;;;;;;9.90;4.10;;;;;;;13.95;73.41;103792.53;5031519;28;20041;-44
2023/12/17 00:43:20;;;;;;;12.48;4.30;;;;;;;14.09;73.38;103794.94;5030569;28;20044;-43
2023/12/17 00:45:45;;;;;;;11.27;3.90;;;;;;;14.20;72.76;103791.09;5031951;28;20056;-46
2023/12/17 00:48:11;;;;;;;9.73;3.90;;;;;;;14.24;71.79;103792.13;5031402;28;20389;-48
2023/12/17 00:50:36;;;;;;;9.52;3.92;;;;;;;14.10;72.54;103794.13;5031266;28;20463;-46
2023/12/17 00:53:01;;;;;;;9.68;3.60;;;;;;;14.15;72.35;103782.09;5030772;28;20095;-45
2023/12/17 00:55:27;;;;;;;8.70;3.35;;;;;;;14.32;72.23;103777.63;5031378;28;20034;-53
2023/12/17 00:57:52;;;;;;;8.82;3.70;;;;;;;13.74;73.70;103774.97;5031934;28;20030;-46
2023/12/17 01:00:17;;;;;;;8.13;3.38;;;;;;;14.05;73.04;103777.28;5030134;28;20480;-47
2023/12/17 01:02:43;;;;;;;10.18;3.60;;;;;;;14.15;72.59;103778.56;5031068;28;20055;-52
2023/12/17 01:05:08;;;;;;;8.05;3.58;;;;;;;14.23;71.40;103793.84;5030803;28;20042;-48
2023/12/17 01:07:33;;;;;;;7.75;3.35;;;;;;;14.43;70.96;103789.50;5031032;28;20048;-46
2023/12/17 01:09:59;;;;;;;10.38;3.95;;;;;;;14.51;70.79;103782.88;5030273;28;20055;-46
2023/12/17 01:12:24;;;;;;;10.70;3.95;;;;;;;14.34;71.32;103789.06;5030765;28;20502;-44
2023/12/17 01:14:49;;;;;;;8.52;3.67;;;;;;;14.16;71.33;103789.13;5031155;28;20030;-49
2023/12/17 01:17:15;;;;;;;9.40;3.92;;;;;;;14.30;71.50;103781.88;5030578;28;20030;-44
2023/12/17 01:19:40;;;;;;;11.23;3.75;;;;;;;14.49;70.79;103775.75;5031074;28;20037;-46
2023/12/17 01:22:05;;;;;;;11.30;4.05;;;;;;;14.42;70.26;103771.06;5029819;28;20411;-46
2023/12/17 01:24:32;;;;;;;8.90;3.60;;;;;;;13.99;71.50;103765.59;5030740;28;20037;-45
2023/12/17 01:27:00;;;;;;;10.20;3.78;;;;;;;14.08;71.97;103766.03;5030114;28;20052;-45
2023/12/17 01:29:25;;;;;;;7.45;3.47;;;;;;;14.30;70.74;103771.41;5030248;28;20729;-44
2023/12/17 01:31:50;;;;;;;10.23;3.50;;;;;;;13.90;71.86;103770.44;5029883;28;20029;-45
2023/12/17 01:34:16;;;;;;;12.02;3.45;;;;;;;13.99;71.47;103760.34;5030085;28;20026;-44
2023/12/17 01:36:41;;;;;;;6.90;3.40;;;;;;;13.95;71.38;103750.56;5030297;28;20479;-45
2023/12/17 01:39:07;;;;;;;6.90;3.20;;;;;;;14.02;71.24;103750.91;5029999;28;20042;-46
2023/12/17 01:41:32;;;;;;;7.18;2.97;;;;;;;13.97;71.04;103748.88;5030070;28;20137;-46
2023/12/17 01:43:57;;;;;;;9.82;2.97;;;;;;;13.68;71.71;103744.94;5029515;28;20484;-45
2023/12/17 01:46:23;;;;;;;8.50;2.85;;;;;;;13.82;71.48;103742.16;5030586;28;20033;-49
2023/12/17 01:48:48;;;;;;;7.97;2.75;;;;;;;13.53;71.85;103753.00;5031103;28;20033;-48
2023/12/17 01:51:15;;;;;;;6.25;2.40;;;;;;;14.00;70.39;103747.31;5029379;28;20033;-45
2023/12/17 01:53:40;;;;;;;5.88;2.10;;;;;;;13.97;69.72;103746.25;5031651;28;20041;-54
2023/12/17 01:56:06;;;;;;;8.10;2.47;;;;;;;14.15;68.18;103753.22;5031180;28;20034;-46
2023/12/17 01:58:32;;;;;;;5.75;2.35;;;;;;;14.03;68.86;103751.78;5030942;28;20068;-48
2023/12/17 02:00:59;;;;;;;4.20;2.38;;;;;;;14.18;68.67;103756.00;5029565;28;20065;-48
2023/12/17 02:03:24;;;;;;;5.55;2.53;;;;;;;13.79;70.15;103746.31;5029730;28;20061;-43
2023/12/17 02:05:49;;;;;;;6.07;2.40;;;;;;;13.70;70.45;103752.06;5028120;28;20072;-45
2023/12/17 02:08:15;;;;;;;6.13;2.38;;;;;;;14.15;69.13;103750.59;5029542;28;20045;-46
2023/12/17 02:10:40;;;;;;;9.50;2.28;;;;;;;14.32;68.96;103766.22;5029683;28;20076;-49
2023/12/17 02:13:09;;;;;;;7.43;2.63;;;;;;;14.25;68.76;103775.56;5028052;28;20049;-48
2023/12/17 02:15:37;;;;;;;7.03;2.38;;;;;;;14.01;70.39;103775.34;5029808;28;20087;-48
2023/12/17 02:18:03;;;;;;;7.82;2.17;;;;;;;14.30;69.52;103774.00;5030181;28;20037;-48
2023/12/17 02:20:28;;;;;;;7.85;2.40;;;;;;;14.23;69.83;103785.97;5029845;28;20041;-48
2023/12/17 02:22:56;;;;;;;6.78;2.30;;;;;;;14.36;69.42;103786.50;5029740;28;20037;-44
2023/12/17 02:25:22;;;;;;;8.63;2.30;;;;;;;14.05;70.36;103785.16;5019823;28;20037;-44
2023/12/17 02:27:47;;;;;;;9.77;2.10;;;;;;;13.99;70.33;103786.59;5010717;28;20049;-44
2023/12/17 02:30:13;;;;;;;9.23;2.30;;;;;;;14.33;69.82;103787.28;5010899;28;20041;-48
2023/12/17 02:32:38;;;;;;;13.23;2.70;;;;;;;14.42;68.93;103790.34;5010409;28;20109;-49
2023/12/17 02:35:04;;;;;;;6.97;2.60;;;;;;;14.42;68.85;103794.69;5010336;28;20397;-45
2023/12/17 02:37:29;;;;;;;8.30;2.53;;;;;;;14.65;68.50;103793.94;5008670;28;20054;-45
2023/12/17 02:39:55;;;;;;;9.45;3.20;;;;;;;14.67;67.87;103784.41;5010493;28;20069;-43
2023/12/17 02:42:21;;;;;;;9.15;3.35;;;;;;;14.39;69.22;103787.59;5011905;28;20045;-45
2023/12/17 02:44:47;;;;;;;11.27;3.60;;;;;;;14.45;68.78;103781.72;5011202;28;20404;-44
2023/12/17 02:47:12;;;;;;;9.00;3.83;;;;;;;14.21;70.09;103776.22;5015350;28;20041;-45
2023/12/17 02:49:37;;;;;;;9.95;4.00;;;;;;;14.24;69.43;103773.75;5009119;28;20503;-49
2023/12/17 02:52:03;;;;;;;14.98;3.45;;;;;;;14.21;69.38;103766.63;5007611;28;20048;-45
2023/12/17 02:54:29;;;;;;;9.10;3.40;;;;;;;14.02;70.67;103768.38;5008760;28;20089;-47
2023/12/17 02:56:55;;;;;;;12.32;3.60;;;;;;;14.30;69.70;103778.38;5009615;28;20041;-49
2023/12/17 02:59:20;;;;;;;8.40;3.38;;;;;;;14.06;70.43;103773.81;5021165;28;20029;-48
2023/12/17 03:01:45;;;;;;;10.55;3.30;;;;;;;13.79;70.87;103772.56;5028992;28;20034;-45
2023/12/17 03:04:11;;;;;;;9.43;3.38;;;;;;;14.11;70.03;103768.78;5028846;28;20115;-44
2023/12/17 03:06:37;;;;;;;7.45;3.10;;;;;;;14.20;69.42;103771.81;5028139;28;20107;-49
2023/12/17 03:09:03;;;;;;;13.13;3.22;;;;;;;14.44;68.72;103761.53;5027579;28;20034;-45
2023/12/17 03:11:29;;;;;;;13.00;3.42;;;;;;;14.44;68.86;103758.91;5028930;28;20037;-47
2023/12/17 03:13:54;;;;;;;9.65;2.80;;;;;;;14.33;69.61;103747.94;5029324;28;20044;-51
2023/12/17 03:16:20;;;;;;;9.57;3.00;;;;;;;13.98;70.96;103751.59;5029146;28;20045;-44
2023/12/17 03:18:46;;;;;;;12.73;2.92;;;;;;;14.37;69.00;103755.13;5029415;28;20487;-44
2023/12/17 03:21:12;;;;;;;10.43;2.80;;;;;;;14.12;69.95;103760.09;5028470;28;20083;-46
2023/12/17 03:23:37;;;;;;;12.65;3.00;;;;;;;14.16;70.42;103746.25;5031124;28;20073;-48
2023/12/17 03:26:03;;;;;;;8.90;3.00;;;;;;;13.92;71.03;103732.94;5029198;28;20029;-45
2023/12/17 03:28:28;;;;;;;13.48;2.92;;;;;;;14.11;71.08;103729.44;5032696;28;20455;-44
2023/12/17 03:30:54;;;;;;;14.15;3.45;;;;;;;14.10;71.07;103730.25;5032618;28;20104;-48
2023/12/17 03:33:19;;;;;;;9.25;3.20;;;;;;;13.99;70.90;103742.91;5032149;28;20037;-50
2023/12/17 03:35:44;;;;;;;14.95;3.67;;;;;;;13.69;72.49;103741.50;5031132;28;20091;-48
2023/12/17 03:38:10;;;;;;;10.80;3.22;;;;;;;13.58;72.73;103748.88;5032278;28;20116;-49
2023/12/17 03:40:35;;;;;;;12.27;3.03;;;;;;;13.99;71.25;103740.28;5032388;28;20116;-45
2023/12/17 03:43:01;;;;;;;12.75;3.50;;;;;;;13.81;71.90;103737.72;5031859;28;20096;-45
2023/12/17 03:45:26;;;;;;;10.80;2.75;;;;;;;14.34;70.03;103735.66;5032658;28;20079;-50
2023/12/17 03:47:51;;;;;;;9.02;3.10;;;;;;;13.88;70.81;103732.75;5032597;28;20464;-51
2023/12/17 03:50:19;;;;;;;15.32;3.33;;;;;;;13.55;71.71;103734.72;5031919;28;20029;-46
2023/12/17 03:52:46;;;;;;;12.48;3.42;;;;;;;14.18;70.91;103729.78;5032165;28;20030;-45
2023/12/17 03:55:13;;;;;;;11.35;3.58;;;;;;;14.37;69.70;103723.63;5014003;28;20160;-45
2023/12/17 03:57:38;;;;;;;10.52;3.60;;;;;;;14.09;70.10;103718.84;5032172;28;20178;-51
2023/12/17 04:00:04;;;;;;;14.45;4.03;;;;;;;13.91;70.98;103727.63;5031920;28;20512;-48
2023/12/17 04:02:30;;;;;;;13.52;3.72;;;;;;;14.31;70.07;103712.84;5030571;28;20103;-47
2023/12/17 04:04:55;;;;;;;10.20;3.70;;;;;;;14.42;69.40;103714.22;5032058;28;20046;-45
2023/12/17 04:07:21;;;;;;;11.88;3.63;;;;;;;14.12;70.27;103702.38;5032320;28;20040;-45
2023/12/17 04:09:47;;;;;;;15.63;4.03;;;;;;;13.80;71.82;103703.56;5032761;28;20030;-44
2023/12/17 04:12:12;;;;;;;15.05;3.78;;;;;;;13.69;72.82;103699.56;5032203;28;20500;-45
2023/12/17 04:14:37;;;;;;;13.57;4.38;;;;;;;13.67;72.26;103701.19;5032689;28;20033;-43
2023/12/17 04:17:03;;;;;;;13.82;3.95;;;;;;;14.13;71.29;103698.91;5031391;28;20042;-47
2023/12/17 04:19:28;;;;;;;15.25;4.50;;;;;;;13.99;71.44;103693.06;5031354;28;20053;-44
2023/12/17 04:21:53;;;;;;;13.70;4.53;;;;;;;13.71;72.51;103697.91;5030351;28;20048;-45
2023/12/17 04:24:19;;;;;;;15.90;4.72;;;;;;;14.04;71.70;103702.03;5031464;28;20234;-45
2023/12/17 04:26:44;;;;;;;15.05;4.60;;;;;;;13.89;72.51;103711.84;5031794;28;20045;-45
2023/12/17 04:29:09;;;;;;;18.48;4.70;;;;;;;13.87;72.39;103707.34;5031344;28;20067;-53
2023/12/17 04:31:35;;;;;;;18.92;4.90;;;;;;;14.00;72.09;103707.06;5030962;28;20753;-48
2023/12/17 04:34:00;;;;;;;18.42;4.55;;;;;;;14.01;71.45;103699.28;5029475;28;20045;-48
2023/12/17 04:36:25;;;;;;;16.98;4.47;;;;;;;13.74;73.03;103706.81;5031513;28;20033;-46
2023/12/17 04:38:51;;;;;;;15.05;4.03;;;;;;;13.97;71.97;103699.94;5031456;28;20128;-46
2023/12/17 04:41:16;;;;;;;17.85;4.10;;;;;;;13.72;72.82;103699.72;5030802;28;20034;-49
2023/12/17 04:43:42;;;;;;;14.60;3.70;;;;;;;13.73;72.57;103696.22;5031140;28;20064;-43
2023/12/17 04:46:07;;;;;;;18.30;3.72;;;;;;;13.24;74.73;103696.59;5031133;28;20511;-44
2023/12/17 04:48:33;;;;;;;22.13;4.80;;;;;;;12.90;75.94;103698.41;5031682;28;20049;-45
2023/12/17 04:50:58;;;;;;;13.20;3.78;;;;;;;13.61;73.61;103693.97;5031009;28;20044;-48
2023/12/17 04:53:24;;;;;;;17.27;4.55;;;;;;;13.46;74.06;103690.66;5030953;28;20036;-49
2023/12/17 04:55:49;;;;;;;20.88;4.72;;;;;;;13.41;73.94;103686.91;5031024;28;20553;-49
2023/12/17 04:58:14;;;;;;;27.27;5.03;;;;;;;13.36;74.11;103686.69;5030790;28;20499;-45
2023/12/17 05:00:40;;;;;;;21.30;5.25;;;;;;;13.26;75.38;103686.19;5031028;28;20479;-45
2023/12/17 05:03:05;;;;;;;22.27;5.32;;;;;;;13.62;74.00;103681.75;5030170;28;20128;-48
2023/12/17 05:05:31;;;;;;;23.27;5.80;;;;;;;13.58;74.84;103685.06;5030840;28;20037;-48
2023/12/17 05:07:56;;;;;;;25.08;5.78;;;;;;;13.75;74.13;103678.84;5030555;28;20044;-44
2023/12/17 05:10:21;;;;;;;18.00;5.30;;;;;;;13.48;74.34;103678.50;5031304;28;20099;-46
2023/12/17 05:12:47;;;;;;;24.80;5.47;;;;;;;13.82;74.09;103670.44;5030340;28;20032;-43
2023/12/17 05:15:12;;;;;;;23.88;6.00;;;;;;;13.37;75.33;103675.38;5030364;28;20029;-43
2023/12/17 05:17:37;;;;;;;23.60;5.80;;;;;;;13.62;74.68;103681.75;5030752;28;20025;-48
2023/12/17 05:20:03;;;;;;;24.38;6.10;;;;;;;13.66;75.07;103675.84;5030422;28;20041;-46
2023/12/17 05:22:28;;;;;;;26.33;6.05;;;;;;;13.94;73.23;103673.59;5028910;28;20033;-44
2023/12/17 05:24:53;;;;;;;18.00;5.95;;;;;;;13.51;74.63;103677.75;5030544;28;20088;-44
2023/12/17 05:27:19;;;;;;;26.63;6.10;;;;;;;13.73;74.34;103681.41;5028689;28;20033;-48
2023/12/17 05:29:44;;;;;;;19.92;5.68;;;;;;;13.48;74.84;103675.88;5030773;28;20148;-47
2023/12/17 05:32:09;;;;;;;22.67;5.68;;;;;;;13.43;75.51;103672.16;5029802;28;20128;-45
2023/12/17 05:34:35;;;;;;;31.80;5.80;;;;;;;13.60;74.59;103670.31;5030619;28;20086;-44
2023/12/17 05:37:00;;;;;;;21.52;5.28;;;;;;;13.35;75.57;103670.91;5028689;28;20030;-45
2023/12/17 05:39:25;;;;;;;24.75;5.55;;;;;;;13.06;76.52;103672.09;5029326;28;20164;-44
2023/12/17 05:41:51;;;;;;;22.90;5.68;;;;;;;13.69;74.19;103665.47;5030253;28;20041;-46
2023/12/17 05:44:16;;;;;;;17.73;5.13;;;;;;;13.73;74.30;103677.88;5030525;28;20037;-45
2023/12/17 05:46:41;;;;;;;32.72;5.72;;;;;;;14.00;72.45;103676.50;5031065;28;20453;-45
2023/12/17 05:49:07;;;;;;;22.67;5.93;;;;;;;13.41;75.00;103689.53;5031660;28;20033;-49
2023/12/17 05:51:32;;;;;;;21.60;5.80;;;;;;;13.47;75.25;103687.22;5030846;28;20036;-44
2023/12/17 05:53:57;;;;;;;27.65;6.30;;;;;;;13.50;75.03;103678.56;5030734;28;20072;-47
2023/12/17 05:56:23;;;;;;;25.50;6.03;;;;;;;13.83;73.42;103685.34;5031030;28;20025;-47
2023/12/17 05:58:48;;;;;;;23.73;6.45;;;;;;;13.87;72.92;103682.03;5030771;28;20443;-43
2023/12/17 06:01:14;;;;;;;26.13;6.70;;;;;;;13.40;74.60;103687.75;5029465;28;20041;-45
2023/12/17 06:03:39;;;;;;;23.77;7.07;;;;;;;13.23;75.43;103684.34;5029269;28;20037;-48
2023/12/17 06:06:06;;;;;;;22.10;7.28;;;;;;;13.45;74.92;103685.31;5029359;28;20091;-45
2023/12/17 06:08:31;;;;;;;22.98;7.40;;;;;;;13.51;74.88;103685.59;5029931;28;20129;-48
2023/12/17 06:10:56;;;;;;;21.83;6.38;;;;;;;13.59;74.39;103693.00;5029318;28;20116;-49
2023/12/17 06:13:22;;;;;;;21.33;7.28;;;;;;;13.80;72.47;103699.22;5029658;28;20025;-49
2023/12/17 06:15:47;;;;;;;23.23;7.25;;;;;;;13.56;73.66;103698.09;5029483;28;20053;-46
2023/12/17 06:18:15;;;;;;;24.00;8.02;;;;;;;13.75;72.83;103689.34;5029177;28;20060;-48
2023/12/17 06:20:40;;;;;;;19.73;7.38;;;;;;;13.24;73.91;103690.44;5029632;28;20503;-48
2023/12/17 06:23:06;;;;;;;24.17;7.15;;;;;;;13.13;74.17;103692.56;5028893;28;20132;-47
2023/12/17 06:25:31;;;;;;;18.45;6.50;;;;;;;12.72;75.38;103687.94;5029748;28;20616;-45
2023/12/17 06:27:57;;;;;;;17.58;6.85;;;;;;;12.89;74.69;103687.03;5029181;28;20030;-49
2023/12/17 06:30:22;;;;;;;22.00;7.53;;;;;;;13.06;74.14;103677.34;5029628;28;20037;-46
2023/12/17 06:32:47;;;;;;;19.98;7.18;;;;;;;13.53;71.41;103679.63;5029216;28;20064;-44
2023/12/17 06:35:13;;;;;;;21.35;8.43;;;;;;;13.27;73.01;103674.88;5027874;28;20038;-44
2023/12/17 06:37:38;;;;;;;26.58;9.27;;;;;;;13.36;72.68;103683.16;5029569;28;20423;-46
2023/12/17 06:40:04;;;;;;;26.25;9.35;;;;;;;13.28;72.52;103676.69;5029200;28;20510;-44
2023/12/17 06:42:29;;;;;;;28.55;10.07;;;;;;;13.59;72.07;103679.00;5029031;28;20045;-45
2023/12/17 06:44:54;;;;;;;30.02;11.20;;;;;;;13.56;71.85;103682.38;5029503;28;20116;-46
2023/12/17 06:47:20;;;;;;;28.13;11.60;;;;;;;12.89;74.88;103683.50;5028983;28;20037;-44
2023/12/17 06:49:47;;;;;;;31.48;12.75;;;;;;;13.39;72.88;103681.59;5029744;28;20083;-49
2023/12/17 06:52:12;;;;;;;38.75;13.77;;;;;;;12.99;74.23;103689.25;5028631;28;20029;-45
2023/12/17 06:54:37;;;;;;;38.17;13.82;;;;;;;13.31;72.80;103695.16;5029345;28;20029;-48
2023/12/17 06:57:03;;;;;;;38.42;15.00;;;;;;;13.36;72.23;103688.41;5029519;28;20049;-45
2023/12/17 06:59:28;;;;;;;33.47;13.93;;;;;;;13.20;72.84;103693.75;5033406;28;20472;-46
2023/12/17 07:01:54;;;;;;;36.45;14.15;;;;;;;13.16;72.31;103690.13;5032743;28;20076;-45
2023/12/17 07:04:19;;;;;;;34.13;14.25;;;;;;;13.73;71.20;103691.00;5032813;28;20042;-47
2023/12/17 07:06:45;;;;;;;33.80;15.05;;;;;;;13.55;71.22;103679.66;5032753;28;20034;-45
2023/12/17 07:09:10;;;;;;;37.50;16.80;;;;;;;12.98;73.07;103676.09;5030009;28;20038;-45
2023/12/17 07:11:36;;;;;;;40.85;16.05;;;;;;;13.56;71.20;103677.13;5032506;28;20147;-45
2023/12/17 07:14:01;;;;;;;34.70;15.77;;;;;;;13.62;71.38;103680.03;5032402;28;20045;-44
2023/12/17 07:16:28;;;;;;;39.55;16.67;;;;;;;13.31;72.15;103675.09;5031744;28;20044;-47
2023/12/17 07:18:54;;;;;;;32.75;15.35;;;;;;;13.60;71.26;103686.03;5032688;28;20033;-44
2023/12/17 07:21:19;;;;;;;36.67;15.80;;;;;;;13.96;69.85;103679.81;5031444;28;20030;-49
2023/12/17 07:23:44;;;;;;;35.13;14.82;;;;;;;13.12;72.96;103684.59;5032713;28;20025;-48
2023/12/17 07:26:10;;;;;;;31.15;14.88;;;;;;;13.58;70.77;103687.69;5032277;28;20484;-47
2023/12/17 07:28:35;;;;;;;31.02;12.75;;;;;;;13.29;71.53;103683.72;5032565;28;20033;-48
2023/12/17 07:31:01;;;;;;;32.15;12.68;;;;;;;13.34;71.15;103679.59;5031959;28;20099;-45
2023/12/17 07:33:26;;;;;;;28.83;12.85;;;;;;;13.42;71.36;103685.19;5032474;28;20168;-47
2023/12/17 07:35:52;;;;;;;30.85;12.50;;;;;;;13.38;70.92;103679.81;5032400;28;20761;-46
2023/12/17 07:38:17;;;;;;;31.20;13.32;;;;;;;13.17;72.27;103680.53;5032067;28;20040;-49
2023/12/17 07:40:43;;;;;;;28.88;13.70;;;;;;;13.73;70.82;103693.59;5032348;28;20056;-44
2023/12/17 07:43:09;;;;;;;27.83;14.32;;;;;;;13.74;70.17;103691.06;5032289;28;20519;-44
2023/12/17 07:45:34;;;;;;;31.73;13.55;;;;;;;13.69;70.61;103689.06;5033458;28;20068;-45
2023/12/17 07:47:59;;;;;;;30.27;13.88;;;;;;;13.31;72.11;103684.69;5032782;28;20507;-48
2023/12/17 07:50:25;;;;;;;28.17;14.23;;;;;;;13.22;71.62;103690.41;5033011;28;20034;-46
2023/12/17 07:52:50;;;;;;;27.20;13.23;;;;;;;13.44;71.00;103692.28;5031815;28;20060;-47
2023/12/17 07:55:15;;;;;;;24.98;12.70;;;;;;;13.58;70.85;103690.31;5031555;28;20038;-46
2023/12/17 07:57:41;;;;;;;27.60;12.27;;;;;;;13.31;71.47;103697.78;5032178;28;20033;-45
2023/12/17 08:00:08;;;;;;;26.40;12.65;;;;;;;13.62;69.96;103701.00;5031759;28;20037;-47
2023/12/17 08:02:33;;;;;;;25.15;12.55;;;;;;;13.36;71.48;103698.88;5031507;28;20057;-47
2023/12/17 08:04:59;;;;;;;26.83;13.98;;;;;;;13.18;72.06;103704.16;5031525;28;20065;-47
2023/12/17 08:07:24;;;;;;;30.50;13.13;;;;;;;13.21;71.59;103709.56;5032008;28;20030;-46
2023/12/17 08:09:49;;;;;;;25.45;12.85;;;;;;;12.73;73.28;103699.28;5031567;28;20569;-45
2023/12/17 08:12:15;;;;;;;28.85;12.70;;;;;;;13.03;72.25;103706.03;5031126;28;20053;-48
2023/12/17 08:14:41;;;;;;;26.00;13.07;;;;;;;13.17;72.39;103710.25;5030291;28;20029;-43
2023/12/17 08:17:07;;;;;;;27.42;12.85;;;;;;;13.47;70.59;103708.16;5030916;28;20064;-50
2023/12/17 08:19:32;;;;;;;26.25;13.10;;;;;;;12.88;72.38;103713.13;5031932;28;20048;-47
2023/12/17 08:21:58;;;;;;;27.67;14.20;;;;;;;13.24;71.02;103721.88;5030964;28;20060;-46
2023/12/17 08:24:23;;;;;;;29.52;14.50;;;;;;;12.97;71.67;103719.72;5031809;28;20411;-49
2023/12/17 08:26:50;;;;;;;32.53;14.57;;;;;;;13.41;70.79;103710.50;5029323;28;20079;-46
2023/12/17 08:29:15;;;;;;;27.83;13.65;;;;;;;13.19;71.35;103713.81;5031445;28;20048;-51
2023/12/17 08:31:45;;;;;;;27.80;13.98;;;;;;;13.01;72.37;103713.81;5031493;28;20033;-45
2023/12/17 08:34:11;;;;;;;27.77;14.30;;;;;;;13.11;70.95;103707.31;5029406;28;20029;-48
2023/12/17 08:36:41;;;;;;;30.35;13.65;;;;;;;12.64;72.85;103711.91;5030474;28;20041;-46
2023/12/17 08:39:11;;;;;;;27.17;13.25;;;;;;;12.65;72.62;103713.72;5031029;28;20037;-46
2023/12/17 08:41:38;;;;;;;29.60;13.52;;;;;;;12.89;71.54;103713.19;5031027;28;20092;-46
2023/12/17 08:44:03;;;;;;;30.83;14.05;;;;;;;13.22;70.27;103713.97;5031073;28;20040;-44
2023/12/17 08:46:28;;;;;;;28.70;14.35;;;;;;;12.74;72.62;103708.94;5031764;28;20408;-48
2023/12/17 08:48:54;;;;;;;31.83;14.77;;;;;;;13.01;71.52;103715.53;5031156;28;20025;-44
2023/12/17 08:51:19;;;;;;;30.55;15.32;;;;;;;12.95;70.80;103715.22;5030723;28;20153;-44
2023/12/17 08:53:45;;;;;;;30.10;15.02;;;;;;;13.20;70.37;103720.84;5031756;28;20079;-49
2023/12/17 08:56:10;;;;;;;28.55;15.13;;;;;;;12.87;70.91;103721.78;5030566;28;20036;-49
2023/12/17 08:58:35;;;;;;;36.05;15.80;;;;;;;12.83;72.00;103722.47;5029848;28;20049;-46
2023/12/17 09:01:01;;;;;;;34.28;15.73;;;;;;;12.68;71.89;103721.72;5031002;28;20045;-50
2023/12/17 09:03:26;;;;;;;28.65;14.65;;;;;;;12.91;71.16;103721.16;5030926;28;20033;-47
2023/12/17 09:05:51;;;;;;;27.05;13.35;;;;;;;12.58;72.35;103710.78;5030611;28;20442;-45
2023/12/17 09:08:17;;;;;;;25.95;13.32;;;;;;;12.18;72.97;103720.94;5030324;28;20037;-48
2023/12/17 09:10:42;;;;;;;27.08;12.50;;;;;;;13.07;70.39;103723.66;5030264;28;20154;-46
2023/12/17 09:13:09;;;;;;;24.88;11.52;;;;;;;12.56;71.36;103730.72;5030517;28;20037;-45
2023/12/17 09:15:38;;;;;;;28.85;12.55;;;;;;;12.87;70.42;103727.94;5032362;28;20055;-45
2023/12/17 09:18:05;;;;;;;23.08;12.45;;;;;;;12.87;70.57;103724.41;5030864;28;20037;-47
2023/12/17 09:20:31;;;;;;;30.30;13.50;;;;;;;12.99;69.50;103735.53;5031294;28;20025;-45
2023/12/17 09:22:56;;;;;;;29.15;13.88;;;;;;;13.26;69.51;103731.63;5031124;28;20445;-44
2023/12/17 09:25:22;;;;;;;31.95;15.07;;;;;;;12.96;70.67;103730.13;5024550;28;20041;-50
2023/12/17 09:27:47;;;;;;;34.80;15.52;;;;;;;13.15;70.14;103734.56;5042999;28;20556;-46
2023/12/17 09:30:12;;;;;;;34.30;15.98;;;;;;;12.87;71.35;103729.66;5030432;28;20033;-45
2023/12/17 09:32:38;;;;;;;34.90;16.42;;;;;;;12.42;72.53;103741.34;5030062;28;20507;-49
2023/12/17 09:35:05;;;;;;;33.55;16.67;;;;;;;12.49;72.61;103727.75;5030371;28;20056;-45
2023/12/17 09:37:31;;;;;;;38.65;16.67;;;;;;;12.77;71.04;103720.47;5030809;28;20053;-45
2023/12/17 09:39:56;;;;;;;34.30;16.25;;;;;;;12.66;71.51;103737.34;5030344;28;20092;-48
2023/12/17 09:42:21;;;;;;;30.42;15.68;;;;;;;12.63;71.98;103717.97;5030424;28;20041;-48
2023/12/17 09:44:47;;;;;;;28.75;14.70;;;;;;;12.26;71.84;103737.00;5030555;28;20033;-47
2023/12/17 09:47:12;;;;;;;33.95;14.55;;;;;;;12.48;71.24;103728.56;5029714;28;20057;-49
2023/12/17 09:49:38;;;;;;;26.10;13.85;;;;;;;11.96;72.48;103730.19;5030454;28;20537;-45
2023/12/17 09:52:11;;;;;;;25.98;13.15;;;;;;;11.97;71.22;103729.38;5029518;28;20040;-50
2023/12/17 09:54:37;;;;;;;26.92;13.02;;;;;;;12.80;70.04;103723.25;5030528;28;20033;-52
2023/12/17 09:57:06;;;;;;;28.08;13.88;;;;;;;12.58;69.67;103722.97;5029495;28;20048;-47
2023/12/17 09:59:31;;;;;;;33.00;16.20;;;;;;;12.56;71.24;103730.72;5030340;28;20037;-45
2023/12/17 10:01:57;;;;;;;33.13;15.25;;;;;;;13.16;69.21;103725.88;5029288;28;20403;-46
2023/12/17 10:04:25;;;;;;;31.77;16.73;;;;;;;13.02;69.82;103718.22;5030081;28;20146;-46
2023/12/17 10:06:51;;;;;;;36.45;17.92;;;;;;;12.93;69.54;103709.00;5029982;28;20026;-43
2023/12/17 10:09:17;;;;;;;38.55;18.05;;;;;;;13.16;69.39;103707.56;5029826;28;20396;-48
2023/12/17 10:11:42;;;;;;;39.72;18.40;;;;;;;13.01;70.04;103707.66;5029545;28;20032;-47
2023/12/17 10:14:40;;;;;;;45.33;19.95;;;;;;;12.48;70.73;103711.16;5029200;28;20428;-47
2023/12/17 10:17:05;;;;;;;36.70;19.35;;;;;;;12.90;70.23;103695.78;5032501;28;20047;-44
2023/12/17 10:19:30;;;;;;;35.80;18.40;;;;;;;12.44;70.79;103700.47;5030003;28;20037;-45
2023/12/17 10:21:56;;;;;;;38.13;17.98;;;;;;;12.46;70.52;103704.03;5029134;28;20041;-50
2023/12/17 10:24:34;;;;;;;33.47;15.98;;;;;;;12.94;68.98;103698.59;5030336;28;20029;-49
2023/12/17 10:27:00;;;;;;;34.58;15.93;;;;;;;12.94;69.00;103689.84;5029821;28;20428;-45
2023/12/17 10:29:25;;;;;;;32.42;14.63;;;;;;;12.86;68.44;103689.50;5030336;28;20038;-48
2023/12/17 10:31:52;;;;;;;34.47;14.65;;;;;;;12.38;69.71;103693.19;5030606;28;20037;-46
2023/12/17 10:34:20;;;;;;;34.55;14.50;;;;;;;12.99;68.88;103688.38;5033955;28;20029;-46
2023/12/17 10:36:50;;;;;;;31.92;14.35;;;;;;;12.78;68.73;103682.09;5034417;28;20499;-47
2023/12/17 10:39:19;;;;;;;31.63;13.93;;;;;;;12.74;69.08;103672.31;5033489;28;20171;-45
2023/12/17 10:41:47;;;;;;;35.80;16.00;;;;;;;12.77;69.47;103667.19;5033310;28;20056;-45
2023/12/17 10:44:13;;;;;;;36.35;14.98;;;;;;;13.01;67.81;103664.03;5033866;28;20419;-45
2023/12/17 10:46:42;;;;;;;32.83;15.40;;;;;;;12.96;67.77;103657.69;5033770;28;20124;-44
2023/12/17 10:49:08;;;;;;;31.60;15.23;;;;;;;12.88;68.55;103666.88;5033267;28;20041;-50
2023/12/17 10:51:37;;;;;;;34.53;15.15;;;;;;;12.69;68.77;103655.44;5034158;28;20026;-47
2023/12/17 10:54:02;;;;;;;32.88;15.55;;;;;;;12.82;69.02;103658.75;5033533;28;20041;-45
2023/12/17 10:56:34;;;;;;;32.63;14.65;;;;;;;12.70;68.92;103659.88;5034330;28;20391;-47
2023/12/17 10:59:03;;;;;;;34.70;15.52;;;;;;;12.90;68.68;103657.41;5035263;28;20033;-49
2023/12/17 11:01:29;;;;;;;36.80;16.02;;;;;;;13.11;66.70;103654.91;5033137;28;20037;-45
2023/12/17 11:03:55;;;;;;;36.45;16.40;;;;;;;12.50;69.19;103651.94;5033280;28;20622;-46
2023/12/17 11:06:20;;;;;;;34.75;17.05;;;;;;;12.43;69.99;103641.09;5011618;28;20038;-45
2023/12/17 11:08:46;;;;;;;34.17;16.77;;;;;;;13.20;67.55;103641.38;5013393;28;20042;-49
2023/12/17 11:11:12;;;;;;;35.38;16.55;;;;;;;13.33;67.11;103638.50;5012523;28;20448;-48